sensor_id;sensor_type;location;lat;lon;timestamp;P1;durP1;ratioP1;P2;durP2;ratioP2
45792;SDS011;31495;42.740;22.908;2023-02-15T00:00:29;40.08;;;20.83;;
45792;SDS011;31495;42.740;22.908;2023-02-15T00:01:29;37.45;;;18.70;;
45792;SDS011;31495;42.740;22.908;2023-02-15T00:02:29;36.08;;;17.15;;
45792;SDS011;31495;42.740;22.908;2023-02-15T00:03:28;37.00;;;17.30;;
45792;SDS011;31495;42.740;22.908;2023-02-15T00:04:28;33.95;;;17.67;;
45792;SDS011;31495;42.740;22.908;2023-02-15T00:05:45;32.42;;;17.23;;
45792;SDS011;31495;42.740;22.908;2023-02-15T00:06:44;36.50;;;18.63;;
45792;SDS011;31495;42.740;22.908;2023-02-15T00:07:44;35.53;;;17.30;;
45792;SDS011;31495;42.740;22.908;2023-02-15T00:08:43;31.23;;;16.77;;
45792;SDS011;31495;42.740;22.908;2023-02-15T00:09:43;37.38;;;18.48;;
45792;SDS011;31495;42.740;22.908;2023-02-15T00:10:44;29.98;;;16.45;;
45792;SDS011;31495;42.740;22.908;2023-02-15T00:11:43;34.22;;;16.90;;
45792;SDS011;31495;42.740;22.908;2023-02-15T00:12:49;35.15;;;16.55;;
45792;SDS011;31495;42.740;22.908;2023-02-15T00:13:48;33.45;;;18.25;;
45792;SDS011;31495;42.740;22.908;2023-02-15T00:14:47;34.58;;;17.58;;
45792;SDS011;31495;42.740;22.908;2023-02-15T00:15:47;34.08;;;16.63;;
45792;SDS011;31495;42.740;22.908;2023-02-15T00:16:47;36.28;;;18.60;;
45792;SDS011;31495;42.740;22.908;2023-02-15T00:17:48;33.05;;;16.98;;
45792;SDS011;31495;42.740;22.908;2023-02-15T00:18:47;34.03;;;17.38;;
45792;SDS011;31495;42.740;22.908;2023-02-15T00:19:46;36.15;;;18.27;;
45792;SDS011;31495;42.740;22.908;2023-02-15T00:20:46;37.35;;;17.42;;
45792;SDS011;31495;42.740;22.908;2023-02-15T00:21:46;32.08;;;15.65;;
45792;SDS011;31495;42.740;22.908;2023-02-15T00:22:47;42.67;;;19.20;;
45792;SDS011;31495;42.740;22.908;2023-02-15T00:23:46;36.63;;;17.75;;
45792;SDS011;31495;42.740;22.908;2023-02-15T00:24:45;37.92;;;18.92;;
45792;SDS011;31495;42.740;22.908;2023-02-15T00:25:45;34.92;;;17.60;;
45792;SDS011;31495;42.740;22.908;2023-02-15T00:26:44;34.33;;;16.88;;
45792;SDS011;31495;42.740;22.908;2023-02-15T00:27:45;37.13;;;18.42;;
45792;SDS011;31495;42.740;22.908;2023-02-15T00:28:44;33.80;;;17.92;;
45792;SDS011;31495;42.740;22.908;2023-02-15T00:29:43;32.85;;;16.75;;
45792;SDS011;31495;42.740;22.908;2023-02-15T00:30:43;33.75;;;17.35;;
45792;SDS011;31495;42.740;22.908;2023-02-15T00:31:42;35.38;;;18.38;;
45792;SDS011;31495;42.740;22.908;2023-02-15T00:32:42;35.22;;;17.23;;
45792;SDS011;31495;42.740;22.908;2023-02-15T00:33:41;34.85;;;16.35;;
45792;SDS011;31495;42.740;22.908;2023-02-15T00:34:40;33.53;;;17.77;;
45792;SDS011;31495;42.740;22.908;2023-02-15T00:35:40;34.33;;;17.45;;
45792;SDS011;31495;42.740;22.908;2023-02-15T00:36:39;36.40;;;16.75;;
45792;SDS011;31495;42.740;22.908;2023-02-15T00:37:39;34.88;;;16.42;;
45792;SDS011;31495;42.740;22.908;2023-02-15T00:38:38;32.50;;;16.67;;
45792;SDS011;31495;42.740;22.908;2023-02-15T00:39:38;33.08;;;15.90;;
45792;SDS011;31495;42.740;22.908;2023-02-15T00:40:37;34.42;;;17.38;;
45792;SDS011;31495;42.740;22.908;2023-02-15T00:41:37;34.38;;;16.67;;
45792;SDS011;31495;42.740;22.908;2023-02-15T00:42:37;34.22;;;16.48;;
45792;SDS011;31495;42.740;22.908;2023-02-15T00:43:36;34.40;;;17.30;;
45792;SDS011;31495;42.740;22.908;2023-02-15T00:44:36;33.53;;;17.00;;
45792;SDS011;31495;42.740;22.908;2023-02-15T00:45:36;37.28;;;17.52;;
45792;SDS011;31495;42.740;22.908;2023-02-15T00:46:36;32.72;;;16.45;;
45792;SDS011;31495;42.740;22.908;2023-02-15T00:47:35;32.55;;;17.30;;
45792;SDS011;31495;42.740;22.908;2023-02-15T00:48:35;30.38;;;16.50;;
45792;SDS011;31495;42.740;22.908;2023-02-15T00:49:34;33.95;;;16.23;;
45792;SDS011;31495;42.740;22.908;2023-02-15T00:50:34;34.55;;;16.27;;
45792;SDS011;31495;42.740;22.908;2023-02-15T00:51:33;35.35;;;17.33;;
45792;SDS011;31495;42.740;22.908;2023-02-15T00:52:32;34.47;;;16.88;;
45792;SDS011;31495;42.740;22.908;2023-02-15T00:53:32;27.45;;;14.55;;
45792;SDS011;31495;42.740;22.908;2023-02-15T00:54:32;32.30;;;16.42;;
45792;SDS011;31495;42.740;22.908;2023-02-15T00:55:31;29.55;;;15.98;;
45792;SDS011;31495;42.740;22.908;2023-02-15T00:56:30;36.25;;;16.67;;
45792;SDS011;31495;42.740;22.908;2023-02-15T00:57:30;37.92;;;16.77;;
45792;SDS011;31495;42.740;22.908;2023-02-15T00:58:29;34.10;;;16.65;;
45792;SDS011;31495;42.740;22.908;2023-02-15T00:59:29;29.42;;;15.95;;
45792;SDS011;31495;42.740;22.908;2023-02-15T01:00:29;32.65;;;17.15;;
45792;SDS011;31495;42.740;22.908;2023-02-15T01:01:28;35.75;;;18.20;;
45792;SDS011;31495;42.740;22.908;2023-02-15T01:02:27;32.95;;;17.13;;
45792;SDS011;31495;42.740;22.908;2023-02-15T01:03:27;32.15;;;18.25;;
45792;SDS011;31495;42.740;22.908;2023-02-15T01:04:27;33.08;;;16.35;;
45792;SDS011;31495;42.740;22.908;2023-02-15T01:05:26;33.75;;;15.77;;
45792;SDS011;31495;42.740;22.908;2023-02-15T01:06:26;36.95;;;17.75;;
45792;SDS011;31495;42.740;22.908;2023-02-15T01:07:25;35.65;;;17.30;;
45792;SDS011;31495;42.740;22.908;2023-02-15T01:08:25;31.60;;;16.65;;
45792;SDS011;31495;42.740;22.908;2023-02-15T01:09:24;32.75;;;16.80;;
45792;SDS011;31495;42.740;22.908;2023-02-15T01:10:24;32.67;;;16.65;;
45792;SDS011;31495;42.740;22.908;2023-02-15T01:11:24;33.17;;;16.98;;
45792;SDS011;31495;42.740;22.908;2023-02-15T01:12:23;33.35;;;16.33;;
45792;SDS011;31495;42.740;22.908;2023-02-15T01:13:22;32.35;;;16.77;;
45792;SDS011;31495;42.740;22.908;2023-02-15T01:14:22;34.83;;;16.15;;
45792;SDS011;31495;42.740;22.908;2023-02-15T01:15:22;32.85;;;16.67;;
45792;SDS011;31495;42.740;22.908;2023-02-15T01:16:23;29.15;;;14.95;;
45792;SDS011;31495;42.740;22.908;2023-02-15T01:17:24;35.60;;;16.55;;
45792;SDS011;31495;42.740;22.908;2023-02-15T01:18:24;35.00;;;16.55;;
45792;SDS011;31495;42.740;22.908;2023-02-15T01:19:23;31.83;;;16.60;;
45792;SDS011;31495;42.740;22.908;2023-02-15T01:20:24;32.40;;;16.45;;
45792;SDS011;31495;42.740;22.908;2023-02-15T01:21:26;30.17;;;15.57;;
45792;SDS011;31495;42.740;22.908;2023-02-15T01:22:25;36.42;;;16.80;;
45792;SDS011;31495;42.740;22.908;2023-02-15T01:23:25;34.72;;;17.42;;
45792;SDS011;31495;42.740;22.908;2023-02-15T01:24:25;33.15;;;16.20;;
45792;SDS011;31495;42.740;22.908;2023-02-15T01:25:24;30.73;;;16.10;;
45792;SDS011;31495;42.740;22.908;2023-02-15T01:26:24;27.20;;;14.55;;
45792;SDS011;31495;42.740;22.908;2023-02-15T01:27:23;30.15;;;16.38;;
45792;SDS011;31495;42.740;22.908;2023-02-15T01:28:23;32.85;;;16.52;;
45792;SDS011;31495;42.740;22.908;2023-02-15T01:29:22;25.67;;;14.52;;
45792;SDS011;31495;42.740;22.908;2023-02-15T01:30:22;38.35;;;17.17;;
45792;SDS011;31495;42.740;22.908;2023-02-15T01:31:21;34.80;;;17.08;;
45792;SDS011;31495;42.740;22.908;2023-02-15T01:32:21;32.90;;;16.13;;
45792;SDS011;31495;42.740;22.908;2023-02-15T01:33:20;35.95;;;17.23;;
45792;SDS011;31495;42.740;22.908;2023-02-15T01:34:20;33.78;;;17.88;;
45792;SDS011;31495;42.740;22.908;2023-02-15T01:35:19;32.00;;;17.92;;
45792;SDS011;31495;42.740;22.908;2023-02-15T01:36:18;39.30;;;18.23;;
45792;SDS011;31495;42.740;22.908;2023-02-15T01:37:18;32.03;;;17.65;;
45792;SDS011;31495;42.740;22.908;2023-02-15T01:38:17;38.90;;;16.30;;
45792;SDS011;31495;42.740;22.908;2023-02-15T01:39:17;34.40;;;16.70;;
45792;SDS011;31495;42.740;22.908;2023-02-15T01:40:17;28.42;;;15.90;;
45792;SDS011;31495;42.740;22.908;2023-02-15T01:41:17;31.38;;;15.65;;
45792;SDS011;31495;42.740;22.908;2023-02-15T01:42:22;33.80;;;17.42;;
45792;SDS011;31495;42.740;22.908;2023-02-15T01:43:27;38.35;;;17.80;;
45792;SDS011;31495;42.740;22.908;2023-02-15T01:44:47;34.35;;;17.10;;
45792;SDS011;31495;42.740;22.908;2023-02-15T01:45:47;35.03;;;16.95;;
45792;SDS011;31495;42.740;22.908;2023-02-15T01:46:50;32.20;;;16.98;;
45792;SDS011;31495;42.740;22.908;2023-02-15T01:47:53;38.08;;;17.23;;
45792;SDS011;31495;42.740;22.908;2023-02-15T01:48:58;30.30;;;15.23;;
45792;SDS011;31495;42.740;22.908;2023-02-15T01:50:12;37.35;;;17.30;;
45792;SDS011;31495;42.740;22.908;2023-02-15T01:51:23;35.35;;;16.35;;
45792;SDS011;31495;42.740;22.908;2023-02-15T01:52:26;36.33;;;17.42;;
45792;SDS011;31495;42.740;22.908;2023-02-15T01:53:42;33.85;;;17.60;;
45792;SDS011;31495;42.740;22.908;2023-02-15T01:54:47;32.45;;;16.63;;
45792;SDS011;31495;42.740;22.908;2023-02-15T01:56:06;32.28;;;15.85;;
45792;SDS011;31495;42.740;22.908;2023-02-15T01:57:11;37.00;;;17.85;;
45792;SDS011;31495;42.740;22.908;2023-02-15T01:58:13;32.33;;;16.02;;
45792;SDS011;31495;42.740;22.908;2023-02-15T01:59:14;31.15;;;15.70;;
45792;SDS011;31495;42.740;22.908;2023-02-15T02:00:19;31.00;;;15.57;;
45792;SDS011;31495;42.740;22.908;2023-02-15T02:01:20;36.00;;;16.88;;
45792;SDS011;31495;42.740;22.908;2023-02-15T02:02:20;35.70;;;16.83;;
45792;SDS011;31495;42.740;22.908;2023-02-15T02:03:42;37.17;;;16.85;;
45792;SDS011;31495;42.740;22.908;2023-02-15T02:04:53;35.90;;;17.63;;
45792;SDS011;31495;42.740;22.908;2023-02-15T02:05:57;33.30;;;18.02;;
45792;SDS011;31495;42.740;22.908;2023-02-15T02:06:56;36.33;;;17.35;;
45792;SDS011;31495;42.740;22.908;2023-02-15T02:07:57;36.10;;;18.10;;
45792;SDS011;31495;42.740;22.908;2023-02-15T02:08:58;37.33;;;18.23;;
45792;SDS011;31495;42.740;22.908;2023-02-15T02:09:59;38.83;;;19.00;;
45792;SDS011;31495;42.740;22.908;2023-02-15T02:10:59;36.05;;;17.00;;
45792;SDS011;31495;42.740;22.908;2023-02-15T02:11:58;36.92;;;19.35;;
45792;SDS011;31495;42.740;22.908;2023-02-15T02:12:59;35.08;;;15.95;;
45792;SDS011;31495;42.740;22.908;2023-02-15T02:14:03;31.63;;;16.00;;
45792;SDS011;31495;42.740;22.908;2023-02-15T02:15:03;33.83;;;16.98;;
45792;SDS011;31495;42.740;22.908;2023-02-15T02:16:05;31.92;;;16.63;;
45792;SDS011;31495;42.740;22.908;2023-02-15T02:20:24;38.92;;;18.60;;
45792;SDS011;31495;42.740;22.908;2023-02-15T02:24:03;35.28;;;16.70;;
45792;SDS011;31495;42.740;22.908;2023-02-15T02:25:11;34.95;;;17.95;;
45792;SDS011;31495;42.740;22.908;2023-02-15T02:26:27;36.80;;;19.42;;
45792;SDS011;31495;42.740;22.908;2023-02-15T02:34:33;38.38;;;18.33;;
45792;SDS011;31495;42.740;22.908;2023-02-15T02:35:58;32.92;;;16.33;;
45792;SDS011;31495;42.740;22.908;2023-02-15T02:37:19;36.42;;;17.30;;
45792;SDS011;31495;42.740;22.908;2023-02-15T02:38:33;43.15;;;18.58;;
45792;SDS011;31495;42.740;22.908;2023-02-15T02:42:01;38.42;;;17.70;;
45792;SDS011;31495;42.740;22.908;2023-02-15T02:42:39;36.65;;;18.30;;
45792;SDS011;31495;42.740;22.908;2023-02-15T02:43:45;34.83;;;17.70;;
45792;SDS011;31495;42.740;22.908;2023-02-15T02:44:47;33.78;;;17.20;;
45792;SDS011;31495;42.740;22.908;2023-02-15T02:46:58;31.05;;;17.45;;
45792;SDS011;31495;42.740;22.908;2023-02-15T02:48:13;36.65;;;16.52;;
45792;SDS011;31495;42.740;22.908;2023-02-15T02:49:15;28.58;;;16.63;;
45792;SDS011;31495;42.740;22.908;2023-02-15T02:50:16;31.80;;;16.10;;
45792;SDS011;31495;42.740;22.908;2023-02-15T02:51:22;34.20;;;16.65;;
45792;SDS011;31495;42.740;22.908;2023-02-15T02:53:39;34.40;;;15.60;;
45792;SDS011;31495;42.740;22.908;2023-02-15T02:54:39;35.53;;;16.48;;
45792;SDS011;31495;42.740;22.908;2023-02-15T02:55:46;36.67;;;17.40;;
45792;SDS011;31495;42.740;22.908;2023-02-15T02:56:59;33.85;;;16.63;;
45792;SDS011;31495;42.740;22.908;2023-02-15T02:58:08;29.83;;;17.20;;
45792;SDS011;31495;42.740;22.908;2023-02-15T02:59:31;34.92;;;16.25;;
45792;SDS011;31495;42.740;22.908;2023-02-15T03:00:40;33.65;;;17.58;;
45792;SDS011;31495;42.740;22.908;2023-02-15T03:01:48;40.83;;;18.20;;
45792;SDS011;31495;42.740;22.908;2023-02-15T03:02:53;36.20;;;16.60;;
45792;SDS011;31495;42.740;22.908;2023-02-15T03:04:03;36.83;;;16.42;;
45792;SDS011;31495;42.740;22.908;2023-02-15T03:05:10;33.58;;;15.73;;
45792;SDS011;31495;42.740;22.908;2023-02-15T03:06:16;38.55;;;18.17;;
45792;SDS011;31495;42.740;22.908;2023-02-15T03:07:19;40.38;;;18.33;;
45792;SDS011;31495;42.740;22.908;2023-02-15T03:08:25;36.70;;;17.50;;
45792;SDS011;31495;42.740;22.908;2023-02-15T03:09:31;33.17;;;14.88;;
45792;SDS011;31495;42.740;22.908;2023-02-15T03:10:44;35.47;;;17.08;;
45792;SDS011;31495;42.740;22.908;2023-02-15T03:11:44;38.50;;;17.77;;
45792;SDS011;31495;42.740;22.908;2023-02-15T03:12:45;32.17;;;15.85;;
45792;SDS011;31495;42.740;22.908;2023-02-15T03:13:45;36.42;;;18.55;;
45792;SDS011;31495;42.740;22.908;2023-02-15T03:14:52;32.55;;;17.20;;
45792;SDS011;31495;42.740;22.908;2023-02-15T03:15:55;33.58;;;16.33;;
45792;SDS011;31495;42.740;22.908;2023-02-15T03:17:16;34.88;;;16.25;;
45792;SDS011;31495;42.740;22.908;2023-02-15T03:18:20;35.95;;;17.30;;
45792;SDS011;31495;42.740;22.908;2023-02-15T03:19:28;32.25;;;16.88;;
45792;SDS011;31495;42.740;22.908;2023-02-15T03:20:33;33.55;;;17.02;;
45792;SDS011;31495;42.740;22.908;2023-02-15T03:21:42;35.20;;;16.88;;
45792;SDS011;31495;42.740;22.908;2023-02-15T03:23:10;35.10;;;17.48;;
45792;SDS011;31495;42.740;22.908;2023-02-15T03:24:17;35.42;;;16.60;;
45792;SDS011;31495;42.740;22.908;2023-02-15T03:25:25;36.20;;;18.27;;
45792;SDS011;31495;42.740;22.908;2023-02-15T03:26:29;40.15;;;19.92;;
45792;SDS011;31495;42.740;22.908;2023-02-15T03:27:31;39.33;;;19.90;;
45792;SDS011;31495;42.740;22.908;2023-02-15T03:28:45;38.50;;;16.77;;
45792;SDS011;31495;42.740;22.908;2023-02-15T03:29:48;36.55;;;17.33;;
45792;SDS011;31495;42.740;22.908;2023-02-15T03:30:52;42.25;;;18.23;;
45792;SDS011;31495;42.740;22.908;2023-02-15T03:31:56;42.03;;;18.08;;
45792;SDS011;31495;42.740;22.908;2023-02-15T03:32:59;38.05;;;17.58;;
45792;SDS011;31495;42.740;22.908;2023-02-15T03:34:02;34.33;;;17.45;;
45792;SDS011;31495;42.740;22.908;2023-02-15T03:35:05;37.28;;;18.67;;
45792;SDS011;31495;42.740;22.908;2023-02-15T03:36:18;34.42;;;17.88;;
45792;SDS011;31495;42.740;22.908;2023-02-15T03:37:35;35.28;;;17.38;;
45792;SDS011;31495;42.740;22.908;2023-02-15T03:38:42;34.88;;;16.45;;
45792;SDS011;31495;42.740;22.908;2023-02-15T03:40:16;32.05;;;15.25;;
45792;SDS011;31495;42.740;22.908;2023-02-15T03:41:40;36.25;;;18.65;;
45792;SDS011;31495;42.740;22.908;2023-02-15T03:42:45;32.28;;;16.90;;
45792;SDS011;31495;42.740;22.908;2023-02-15T03:46:15;40.33;;;20.13;;
45792;SDS011;31495;42.740;22.908;2023-02-15T03:47:22;40.42;;;19.45;;
45792;SDS011;31495;42.740;22.908;2023-02-15T03:48:29;38.33;;;19.25;;
45792;SDS011;31495;42.740;22.908;2023-02-15T03:49:41;33.75;;;16.45;;
45792;SDS011;31495;42.740;22.908;2023-02-15T03:50:44;31.95;;;15.15;;
45792;SDS011;31495;42.740;22.908;2023-02-15T03:52:03;36.83;;;17.83;;
45792;SDS011;31495;42.740;22.908;2023-02-15T03:53:07;37.72;;;18.77;;
45792;SDS011;31495;42.740;22.908;2023-02-15T03:54:12;33.80;;;16.63;;
45792;SDS011;31495;42.740;22.908;2023-02-15T03:55:38;31.40;;;15.65;;
45792;SDS011;31495;42.740;22.908;2023-02-15T03:56:40;29.30;;;15.73;;
45792;SDS011;31495;42.740;22.908;2023-02-15T03:57:40;35.55;;;16.27;;
45792;SDS011;31495;42.740;22.908;2023-02-15T03:59:00;32.42;;;16.33;;
45792;SDS011;31495;42.740;22.908;2023-02-15T04:00:22;34.13;;;16.67;;
45792;SDS011;31495;42.740;22.908;2023-02-15T04:01:54;31.85;;;15.48;;
45792;SDS011;31495;42.740;22.908;2023-02-15T04:03:59;36.95;;;17.23;;
45792;SDS011;31495;42.740;22.908;2023-02-15T04:05:05;31.70;;;16.65;;
45792;SDS011;31495;42.740;22.908;2023-02-15T04:06:05;35.88;;;18.17;;
45792;SDS011;31495;42.740;22.908;2023-02-15T04:07:05;43.95;;;19.77;;
45792;SDS011;31495;42.740;22.908;2023-02-15T04:08:06;41.60;;;20.23;;
45792;SDS011;31495;42.740;22.908;2023-02-15T04:09:06;33.97;;;16.38;;
45792;SDS011;31495;42.740;22.908;2023-02-15T04:10:25;31.20;;;15.50;;
45792;SDS011;31495;42.740;22.908;2023-02-15T04:11:43;31.98;;;16.08;;
45792;SDS011;31495;42.740;22.908;2023-02-15T04:12:42;29.88;;;15.68;;
45792;SDS011;31495;42.740;22.908;2023-02-15T04:13:42;32.80;;;16.92;;
45792;SDS011;31495;42.740;22.908;2023-02-15T04:14:41;33.33;;;17.05;;
45792;SDS011;31495;42.740;22.908;2023-02-15T04:16:00;38.63;;;18.00;;
45792;SDS011;31495;42.740;22.908;2023-02-15T04:17:05;32.05;;;15.93;;
45792;SDS011;31495;42.740;22.908;2023-02-15T04:18:06;34.53;;;18.42;;
45792;SDS011;31495;42.740;22.908;2023-02-15T04:19:05;36.35;;;19.35;;
45792;SDS011;31495;42.740;22.908;2023-02-15T04:20:23;30.27;;;16.25;;
45792;SDS011;31495;42.740;22.908;2023-02-15T04:21:42;35.05;;;16.60;;
45792;SDS011;31495;42.740;22.908;2023-02-15T04:23:00;28.48;;;15.18;;
45792;SDS011;31495;42.740;22.908;2023-02-15T04:24:19;33.15;;;16.08;;
45792;SDS011;31495;42.740;22.908;2023-02-15T04:25:37;42.85;;;18.80;;
45792;SDS011;31495;42.740;22.908;2023-02-15T04:26:37;37.50;;;18.88;;
45792;SDS011;31495;42.740;22.908;2023-02-15T04:27:37;38.08;;;18.83;;
45792;SDS011;31495;42.740;22.908;2023-02-15T04:28:36;29.83;;;17.05;;
45792;SDS011;31495;42.740;22.908;2023-02-15T04:29:36;37.17;;;17.13;;
45792;SDS011;31495;42.740;22.908;2023-02-15T04:30:35;31.05;;;16.40;;
45792;SDS011;31495;42.740;22.908;2023-02-15T04:31:35;27.88;;;14.73;;
45792;SDS011;31495;42.740;22.908;2023-02-15T04:32:34;35.67;;;16.15;;
45792;SDS011;31495;42.740;22.908;2023-02-15T04:33:34;29.55;;;16.23;;
45792;SDS011;31495;42.740;22.908;2023-02-15T04:34:34;37.70;;;17.50;;
45792;SDS011;31495;42.740;22.908;2023-02-15T04:35:34;34.30;;;17.42;;
45792;SDS011;31495;42.740;22.908;2023-02-15T04:36:33;33.08;;;15.73;;
45792;SDS011;31495;42.740;22.908;2023-02-15T04:37:33;31.38;;;15.77;;
45792;SDS011;31495;42.740;22.908;2023-02-15T04:38:32;35.75;;;17.33;;
45792;SDS011;31495;42.740;22.908;2023-02-15T04:39:32;33.90;;;16.48;;
45792;SDS011;31495;42.740;22.908;2023-02-15T04:40:31;30.88;;;16.58;;
45792;SDS011;31495;42.740;22.908;2023-02-15T04:41:31;33.42;;;17.60;;
45792;SDS011;31495;42.740;22.908;2023-02-15T04:42:30;35.72;;;17.48;;
45792;SDS011;31495;42.740;22.908;2023-02-15T04:43:30;34.33;;;16.77;;
45792;SDS011;31495;42.740;22.908;2023-02-15T04:44:29;37.35;;;17.92;;
45792;SDS011;31495;42.740;22.908;2023-02-15T04:45:29;34.80;;;16.10;;
45792;SDS011;31495;42.740;22.908;2023-02-15T04:46:28;34.10;;;17.15;;
45792;SDS011;31495;42.740;22.908;2023-02-15T04:47:28;37.40;;;17.45;;
45792;SDS011;31495;42.740;22.908;2023-02-15T04:48:27;35.45;;;18.63;;
45792;SDS011;31495;42.740;22.908;2023-02-15T04:49:27;35.55;;;18.02;;
45792;SDS011;31495;42.740;22.908;2023-02-15T04:50:26;35.20;;;18.73;;
45792;SDS011;31495;42.740;22.908;2023-02-15T04:51:26;34.75;;;16.30;;
45792;SDS011;31495;42.740;22.908;2023-02-15T04:52:25;30.40;;;15.90;;
45792;SDS011;31495;42.740;22.908;2023-02-15T04:53:25;36.92;;;17.98;;
45792;SDS011;31495;42.740;22.908;2023-02-15T04:54:24;34.85;;;17.60;;
45792;SDS011;31495;42.740;22.908;2023-02-15T04:55:24;32.47;;;17.08;;
45792;SDS011;31495;42.740;22.908;2023-02-15T04:56:23;37.90;;;19.33;;
45792;SDS011;31495;42.740;22.908;2023-02-15T04:57:23;36.08;;;17.40;;
45792;SDS011;31495;42.740;22.908;2023-02-15T04:58:22;29.13;;;15.60;;
45792;SDS011;31495;42.740;22.908;2023-02-15T04:59:22;29.45;;;15.75;;
45792;SDS011;31495;42.740;22.908;2023-02-15T05:00:21;36.58;;;18.00;;
45792;SDS011;31495;42.740;22.908;2023-02-15T05:01:21;37.65;;;17.88;;
45792;SDS011;31495;42.740;22.908;2023-02-15T05:02:21;36.03;;;17.60;;
45792;SDS011;31495;42.740;22.908;2023-02-15T05:03:20;38.00;;;18.08;;
45792;SDS011;31495;42.740;22.908;2023-02-15T05:04:20;39.58;;;19.15;;
45792;SDS011;31495;42.740;22.908;2023-02-15T05:05:19;34.17;;;17.13;;
45792;SDS011;31495;42.740;22.908;2023-02-15T05:06:18;37.03;;;18.80;;
45792;SDS011;31495;42.740;22.908;2023-02-15T05:07:18;32.60;;;16.13;;
45792;SDS011;31495;42.740;22.908;2023-02-15T05:08:19;31.42;;;16.45;;
45792;SDS011;31495;42.740;22.908;2023-02-15T05:09:18;32.75;;;16.65;;
45792;SDS011;31495;42.740;22.908;2023-02-15T05:10:18;34.67;;;16.17;;
45792;SDS011;31495;42.740;22.908;2023-02-15T05:11:17;32.40;;;16.80;;
45792;SDS011;31495;42.740;22.908;2023-02-15T05:12:17;38.03;;;19.20;;
45792;SDS011;31495;42.740;22.908;2023-02-15T05:13:16;32.05;;;15.02;;
45792;SDS011;31495;42.740;22.908;2023-02-15T05:14:16;42.97;;;19.77;;
45792;SDS011;31495;42.740;22.908;2023-02-15T05:15:15;38.22;;;18.98;;
45792;SDS011;31495;42.740;22.908;2023-02-15T05:16:15;38.63;;;18.60;;
45792;SDS011;31495;42.740;22.908;2023-02-15T05:17:14;31.83;;;17.25;;
45792;SDS011;31495;42.740;22.908;2023-02-15T05:18:14;32.70;;;17.75;;
45792;SDS011;31495;42.740;22.908;2023-02-15T05:19:14;37.58;;;19.33;;
45792;SDS011;31495;42.740;22.908;2023-02-15T05:20:14;37.55;;;18.05;;
45792;SDS011;31495;42.740;22.908;2023-02-15T05:21:13;37.40;;;17.65;;
45792;SDS011;31495;42.740;22.908;2023-02-15T05:22:15;33.67;;;17.48;;
45792;SDS011;31495;42.740;22.908;2023-02-15T05:23:15;36.13;;;17.58;;
45792;SDS011;31495;42.740;22.908;2023-02-15T05:24:14;32.33;;;16.90;;
45792;SDS011;31495;42.740;22.908;2023-02-15T05:25:32;37.95;;;16.38;;
45792;SDS011;31495;42.740;22.908;2023-02-15T05:26:50;31.48;;;15.48;;
45792;SDS011;31495;42.740;22.908;2023-02-15T05:28:12;33.67;;;16.65;;
45792;SDS011;31495;42.740;22.908;2023-02-15T05:29:20;33.83;;;18.00;;
45792;SDS011;31495;42.740;22.908;2023-02-15T05:30:20;31.48;;;17.08;;
45792;SDS011;31495;42.740;22.908;2023-02-15T05:31:19;39.85;;;19.02;;
45792;SDS011;31495;42.740;22.908;2023-02-15T05:32:19;39.13;;;18.00;;
45792;SDS011;31495;42.740;22.908;2023-02-15T05:33:19;38.88;;;18.40;;
45792;SDS011;31495;42.740;22.908;2023-02-15T05:34:18;42.15;;;20.02;;
45792;SDS011;31495;42.740;22.908;2023-02-15T05:35:18;45.00;;;20.42;;
45792;SDS011;31495;42.740;22.908;2023-02-15T05:36:17;50.35;;;25.45;;
45792;SDS011;31495;42.740;22.908;2023-02-15T05:37:17;56.22;;;28.83;;
45792;SDS011;31495;42.740;22.908;2023-02-15T05:38:16;49.63;;;24.02;;
45792;SDS011;31495;42.740;22.908;2023-02-15T05:39:16;50.38;;;25.60;;
45792;SDS011;31495;42.740;22.908;2023-02-15T05:40:16;47.25;;;25.50;;
45792;SDS011;31495;42.740;22.908;2023-02-15T05:41:15;42.90;;;20.33;;
45792;SDS011;31495;42.740;22.908;2023-02-15T05:42:15;35.22;;;18.15;;
45792;SDS011;31495;42.740;22.908;2023-02-15T05:43:15;38.80;;;20.13;;
45792;SDS011;31495;42.740;22.908;2023-02-15T05:44:14;41.28;;;20.48;;
45792;SDS011;31495;42.740;22.908;2023-02-15T05:45:13;40.55;;;21.13;;
45792;SDS011;31495;42.740;22.908;2023-02-15T05:46:14;37.50;;;21.08;;
45792;SDS011;31495;42.740;22.908;2023-02-15T05:47:13;38.63;;;19.38;;
45792;SDS011;31495;42.740;22.908;2023-02-15T05:48:13;37.10;;;18.63;;
45792;SDS011;31495;42.740;22.908;2023-02-15T05:49:13;39.20;;;21.33;;
45792;SDS011;31495;42.740;22.908;2023-02-15T05:50:12;39.30;;;20.55;;
45792;SDS011;31495;42.740;22.908;2023-02-15T05:51:12;39.85;;;19.90;;
45792;SDS011;31495;42.740;22.908;2023-02-15T05:52:13;44.22;;;22.73;;
45792;SDS011;31495;42.740;22.908;2023-02-15T05:53:12;47.03;;;20.98;;
45792;SDS011;31495;42.740;22.908;2023-02-15T05:54:11;58.13;;;27.58;;
45792;SDS011;31495;42.740;22.908;2023-02-15T05:55:11;55.38;;;27.98;;
45792;SDS011;31495;42.740;22.908;2023-02-15T05:56:11;54.63;;;26.92;;
45792;SDS011;31495;42.740;22.908;2023-02-15T05:57:11;49.15;;;25.35;;
45792;SDS011;31495;42.740;22.908;2023-02-15T05:58:10;48.88;;;24.40;;
45792;SDS011;31495;42.740;22.908;2023-02-15T05:59:10;43.58;;;21.50;;
45792;SDS011;31495;42.740;22.908;2023-02-15T06:00:09;46.42;;;24.50;;
45792;SDS011;31495;42.740;22.908;2023-02-15T06:01:11;44.55;;;23.65;;
45792;SDS011;31495;42.740;22.908;2023-02-15T06:02:13;43.83;;;22.10;;
45792;SDS011;31495;42.740;22.908;2023-02-15T06:03:12;40.88;;;22.90;;
45792;SDS011;31495;42.740;22.908;2023-02-15T06:04:12;45.15;;;21.55;;
45792;SDS011;31495;42.740;22.908;2023-02-15T06:05:12;40.45;;;20.88;;
45792;SDS011;31495;42.740;22.908;2023-02-15T06:06:11;37.40;;;17.60;;
45792;SDS011;31495;42.740;22.908;2023-02-15T06:07:11;36.75;;;19.50;;
45792;SDS011;31495;42.740;22.908;2023-02-15T06:08:10;32.78;;;18.58;;
45792;SDS011;31495;42.740;22.908;2023-02-15T06:09:10;35.53;;;17.77;;
45792;SDS011;31495;42.740;22.908;2023-02-15T06:10:11;38.03;;;20.23;;
45792;SDS011;31495;42.740;22.908;2023-02-15T06:11:11;40.60;;;20.90;;
45792;SDS011;31495;42.740;22.908;2023-02-15T06:12:10;42.53;;;22.10;;
45792;SDS011;31495;42.740;22.908;2023-02-15T06:13:10;34.72;;;17.85;;
45792;SDS011;31495;42.740;22.908;2023-02-15T06:14:09;38.67;;;19.15;;
45792;SDS011;31495;42.740;22.908;2023-02-15T06:15:09;31.63;;;17.73;;
45792;SDS011;31495;42.740;22.908;2023-02-15T06:16:08;31.13;;;16.88;;
45792;SDS011;31495;42.740;22.908;2023-02-15T06:17:08;34.05;;;18.15;;
45792;SDS011;31495;42.740;22.908;2023-02-15T06:18:07;30.70;;;16.52;;
45792;SDS011;31495;42.740;22.908;2023-02-15T06:19:07;34.25;;;17.35;;
45792;SDS011;31495;42.740;22.908;2023-02-15T06:20:06;33.88;;;17.92;;
45792;SDS011;31495;42.740;22.908;2023-02-15T06:21:07;35.85;;;19.13;;
45792;SDS011;31495;42.740;22.908;2023-02-15T06:22:07;35.67;;;17.88;;
45792;SDS011;31495;42.740;22.908;2023-02-15T06:23:06;28.40;;;14.93;;